createdAt,value
2023-05-01T00:01:34.664Z,60.53
2023-05-01T00:03:37.556Z,60.52
2023-05-01T00:05:40.502Z,60.49
2023-05-01T00:07:43.442Z,60.67
2023-05-01T00:09:46.558Z,60.77
2023-05-01T00:11:49.370Z,60.97
2023-05-01T00:13:54.242Z,60.71
2023-05-01T00:15:58.840Z,60.77
2023-05-01T00:18:01.684Z,60.83
2023-05-01T00:20:05.410Z,60.95
2023-05-01T00:22:08.565Z,61.16
2023-05-01T00:24:11.565Z,61.00
2023-05-01T00:26:14.413Z,61.10
2023-05-01T00:28:19.375Z,61.10
2023-05-01T00:30:22.085Z,61.15
2023-05-01T00:32:26.391Z,60.96
2023-05-01T00:34:30.124Z,61.07
2023-05-01T00:36:33.026Z,61.36
2023-05-01T00:38:35.807Z,61.32
2023-05-01T00:40:43.742Z,61.46
2023-05-01T00:42:46.610Z,61.38
2023-05-01T00:44:49.327Z,61.33
2023-05-01T00:46:52.183Z,61.36
2023-05-01T00:48:56.733Z,61.42
2023-05-01T00:51:01.598Z,61.53
2023-05-01T00:53:05.077Z,61.53
2023-05-01T00:55:09.098Z,61.46
2023-05-01T00:57:12.170Z,61.43
2023-05-01T00:59:15.929Z,61.48
2023-05-01T01:01:18.917Z,61.61
2023-05-01T01:03:21.775Z,61.64
2023-05-01T01:05:29.198Z,61.72
2023-05-01T01:07:40.971Z,61.70
2023-05-01T01:09:51.651Z,61.73
2023-05-01T01:12:14.358Z,61.74
2023-05-01T01:14:21.222Z,61.90
2023-05-01T01:16:32.301Z,61.82
2023-05-01T01:18:40.820Z,61.87
2023-05-01T01:20:51.033Z,61.88
2023-05-01T01:23:04.418Z,61.88
2023-05-01T01:25:31.086Z,61.95
2023-05-01T01:28:01.408Z,61.99
2023-05-01T01:30:30.443Z,61.93
2023-05-01T01:32:57.633Z,62.10
2023-05-01T01:35:04.780Z,62.03
2023-05-01T01:37:14.877Z,62.15
2023-05-01T01:39:28.238Z,62.07
2023-05-01T01:41:34.320Z,62.03
2023-05-01T01:43:41.591Z,61.98
2023-05-01T01:45:47.436Z,61.97
2023-05-01T01:47:52.934Z,62.11
2023-05-01T01:49:57.498Z,61.94
2023-05-01T01:52:03.081Z,62.14
2023-05-01T01:54:06.548Z,62.03
2023-05-01T01:56:10.722Z,61.94
2023-05-01T01:58:16.928Z,62.08
2023-05-01T02:00:21.129Z,62.07
2023-05-01T02:02:26.538Z,61.98
2023-05-01T02:04:31.054Z,61.97
2023-05-01T02:06:36.139Z,62.03
2023-05-01T02:08:42.101Z,62.04
2023-05-01T02:10:46.252Z,61.79
2023-05-01T02:12:52.130Z,61.84
2023-05-01T02:14:55.217Z,61.92
2023-05-01T02:16:58.937Z,61.87
2023-05-01T02:19:03.832Z,61.74
2023-05-01T02:21:07.055Z,61.68
2023-05-01T02:23:11.515Z,61.54
2023-05-01T02:25:16.590Z,61.62
2023-05-01T02:27:23.864Z,61.52
2023-05-01T02:29:28.019Z,61.68
2023-05-01T02:31:30.953Z,61.57
2023-05-01T02:33:33.739Z,61.48
2023-05-01T02:35:40.766Z,61.47
2023-05-01T02:37:44.186Z,61.47
2023-05-01T02:39:47.434Z,61.61
2023-05-01T02:41:54.172Z,61.48
2023-05-01T02:44:04.287Z,61.55
2023-05-01T02:46:10.429Z,61.67
2023-05-01T02:48:18.180Z,61.83
2023-05-01T02:50:22.708Z,61.60
2023-05-01T02:52:25.653Z,61.60
2023-05-01T02:54:29.758Z,61.68
2023-05-01T02:56:32.707Z,61.73
2023-05-01T02:58:37.456Z,61.76
2023-05-01T03:00:40.208Z,61.66
2023-05-01T03:02:43.336Z,61.72
2023-05-01T03:04:46.174Z,61.73
2023-05-01T03:06:49.166Z,61.79
2023-05-01T03:08:52.026Z,61.73
2023-05-01T03:10:54.747Z,61.76
2023-05-01T03:12:57.732Z,61.82
2023-05-01T03:15:01.866Z,61.92
2023-05-01T03:17:04.654Z,61.99
2023-05-01T03:19:07.492Z,62.01
2023-05-01T03:21:10.311Z,62.09
2023-05-01T03:23:13.250Z,61.90
2023-05-01T03:25:16.377Z,62.11
2023-05-01T03:27:19.131Z,62.12
2023-05-01T03:29:21.870Z,62.21
2023-05-01T03:31:26.181Z,62.11
2023-05-01T03:33:29.078Z,62.21
2023-05-01T03:35:31.958Z,62.23
2023-05-01T03:37:34.899Z,62.27
2023-05-01T03:39:37.676Z,62.15
2023-05-01T03:41:40.618Z,62.38
2023-05-01T03:43:43.492Z,62.24
2023-05-01T03:45:46.500Z,62.33
2023-05-01T03:47:50.749Z,62.38
2023-05-01T03:49:53.780Z,62.44
2023-05-01T03:51:56.672Z,62.45
2023-05-01T03:53:59.912Z,62.34
2023-05-01T03:56:04.506Z,62.47
2023-05-01T03:58:07.789Z,62.50
2023-05-01T04:00:11.997Z,62.56
2023-05-01T04:02:14.912Z,62.51
2023-05-01T04:04:19.177Z,62.62
2023-05-01T04:06:22.621Z,62.70
2023-05-01T04:08:25.594Z,62.66
2023-05-01T04:10:28.734Z,62.79
2023-05-01T04:12:31.522Z,62.76
2023-05-01T04:14:34.306Z,62.66
2023-05-01T04:16:37.320Z,62.95
2023-05-01T04:18:40.223Z,62.84
2023-05-01T04:20:44.398Z,62.96
2023-05-01T04:22:47.701Z,62.94
2023-05-01T04:24:51.397Z,62.89
2023-05-01T04:26:54.271Z,62.94
2023-05-01T04:28:56.976Z,63.00
2023-05-01T04:30:59.759Z,63.00
2023-05-01T04:33:02.766Z,62.86
2023-05-01T04:35:06.421Z,62.93
2023-05-01T04:37:10.645Z,62.95
2023-05-01T04:39:13.498Z,62.99
2023-05-01T04:41:16.601Z,62.80
2023-05-01T04:43:19.388Z,62.75
2023-05-01T04:45:22.109Z,62.75
2023-05-01T04:47:25.032Z,62.64
2023-05-01T04:49:27.869Z,62.67
2023-05-01T04:51:31.077Z,62.61
2023-05-01T04:53:36.014Z,62.39
2023-05-01T04:55:38.786Z,62.30
2023-05-01T04:57:41.562Z,62.05
2023-05-01T04:59:44.356Z,62.05
2023-05-01T05:01:47.161Z,61.98
2023-05-01T05:03:52.305Z,61.98
2023-05-01T05:05:55.416Z,61.89
2023-05-01T05:07:58.435Z,61.95
2023-05-01T05:10:02.550Z,61.73
2023-05-01T05:12:05.940Z,61.78
2023-05-01T05:14:08.653Z,61.66
2023-05-01T05:16:11.980Z,61.62
2023-05-01T05:18:14.810Z,61.50
2023-05-01T05:20:17.796Z,61.36
2023-05-01T05:22:20.983Z,61.24
2023-05-01T05:24:23.726Z,61.12
2023-05-01T05:26:28.313Z,61.04
2023-05-01T05:28:31.687Z,61.07
2023-05-01T05:30:34.592Z,60.95
2023-05-01T05:32:37.649Z,60.94
2023-05-01T05:34:40.922Z,60.92
2023-05-01T05:36:43.633Z,60.94
2023-05-01T05:38:46.477Z,61.00
2023-05-01T05:40:49.235Z,61.12
2023-05-01T05:42:53.461Z,61.08
2023-05-01T05:44:56.153Z,61.17
2023-05-01T05:46:59.009Z,60.80
2023-05-01T05:49:01.846Z,60.77
2023-05-01T05:51:05.620Z,60.74
2023-05-01T05:53:09.191Z,60.76
2023-05-01T05:55:12.158Z,60.76
2023-05-01T05:57:14.876Z,60.76
2023-05-01T05:59:19.424Z,60.78
2023-05-01T06:01:22.383Z,60.75
2023-05-01T06:03:25.476Z,60.59
2023-05-01T06:05:28.760Z,60.54
2023-05-01T06:07:31.539Z,60.34
2023-05-01T06:09:34.727Z,60.44
2023-05-01T06:11:37.614Z,60.59
2023-05-01T06:13:40.474Z,60.55
2023-05-01T06:15:44.889Z,60.50
2023-05-01T06:17:48.382Z,60.42
2023-05-01T06:19:52.371Z,60.24
2023-05-01T06:21:55.123Z,60.33
2023-05-01T06:23:57.897Z,60.22
2023-05-01T06:26:00.715Z,60.29
2023-05-01T06:28:04.132Z,60.12
2023-05-01T06:30:09.276Z,60.32
2023-05-01T06:32:13.465Z,59.87
2023-05-01T06:34:16.235Z,59.88
2023-05-01T06:36:18.986Z,59.94
2023-05-01T06:38:21.849Z,59.92
2023-05-01T06:40:24.963Z,59.71
2023-05-01T06:42:27.790Z,59.70
2023-05-01T06:44:32.793Z,59.64
2023-05-01T06:46:35.855Z,59.53
2023-05-01T06:48:40.964Z,59.49
2023-05-01T06:50:43.965Z,59.42
2023-05-01T06:52:46.799Z,59.58
2023-05-01T06:54:49.594Z,59.69
2023-05-01T06:56:52.368Z,59.53
2023-05-01T06:58:55.747Z,59.47
2023-05-01T07:00:58.609Z,59.54
2023-05-01T07:03:03.273Z,59.40
2023-05-01T07:05:10.896Z,59.32
2023-05-01T07:07:14.056Z,59.40
2023-05-01T07:09:17.139Z,59.28
2023-05-01T07:11:20.391Z,59.35
2023-05-01T07:13:23.872Z,59.17
2023-05-01T07:15:27.183Z,58.95
2023-05-01T07:17:31.033Z,58.97
2023-05-01T07:19:34.465Z,59.11
2023-05-01T07:21:38.777Z,58.98
2023-05-01T07:23:41.740Z,59.12
2023-05-01T07:25:45.991Z,59.05
2023-05-01T07:27:49.104Z,58.96
2023-05-01T07:29:52.215Z,58.99
2023-05-01T07:31:55.337Z,58.94
2023-05-01T07:33:58.200Z,58.94
2023-05-01T07:36:01.035Z,58.83
2023-05-01T07:38:05.291Z,58.85
2023-05-01T07:40:09.184Z,58.95
2023-05-01T07:42:12.028Z,58.93
2023-05-01T07:44:14.967Z,58.82
2023-05-01T07:46:17.952Z,58.95
2023-05-01T07:48:21.213Z,58.74
2023-05-01T07:50:24.956Z,58.82
2023-05-01T07:52:28.684Z,58.80
2023-05-01T07:54:32.796Z,58.85
2023-05-01T07:56:35.678Z,58.77
2023-05-01T07:58:40.900Z,58.62
2023-05-01T08:00:44.990Z,59.04
2023-05-01T08:02:48.314Z,58.81
2023-05-01T08:04:51.602Z,58.81
2023-05-01T08:06:54.671Z,58.81
2023-05-01T08:08:57.463Z,58.89
2023-05-01T08:11:01.751Z,58.92
2023-05-01T08:13:07.515Z,58.74
2023-05-01T08:15:11.803Z,58.74
2023-05-01T08:17:15.046Z,58.72
2023-05-01T08:19:17.859Z,58.80
2023-05-01T08:21:20.875Z,58.99
2023-05-01T08:23:25.265Z,59.19
2023-05-01T08:25:28.120Z,59.17
2023-05-01T08:27:32.676Z,59.05
2023-05-01T08:29:35.489Z,59.02
2023-05-01T08:31:39.441Z,58.83
2023-05-01T08:33:44.101Z,58.99
2023-05-01T08:35:47.156Z,58.87
2023-05-01T08:37:50.043Z,59.08
2023-05-01T08:39:52.904Z,58.94
2023-05-01T08:41:58.337Z,59.00
2023-05-01T08:44:03.637Z,59.15
2023-05-01T08:46:10.878Z,58.85
2023-05-01T08:48:14.714Z,59.23
2023-05-01T08:50:19.208Z,59.30
2023-05-01T08:52:23.741Z,59.44
2023-05-01T08:54:29.802Z,59.31
2023-05-01T08:56:33.551Z,59.34
2023-05-01T08:58:36.953Z,59.55
2023-05-01T09:00:42.685Z,59.58
2023-05-01T09:02:48.068Z,59.91
2023-05-01T09:04:52.587Z,59.95
2023-05-01T09:06:56.462Z,59.76
2023-05-01T09:08:59.512Z,59.95
2023-05-01T09:11:03.614Z,60.00
2023-05-01T09:13:08.373Z,60.08
2023-05-01T09:15:12.329Z,60.12
2023-05-01T09:17:16.944Z,60.24
2023-05-01T09:19:20.291Z,60.28
2023-05-01T09:21:25.621Z,60.28
2023-05-01T09:23:29.539Z,60.48
2023-05-01T09:25:32.334Z,60.42
2023-05-01T09:27:36.469Z,60.44
2023-05-01T09:29:40.737Z,60.60
2023-05-01T09:31:43.674Z,60.59
2023-05-01T09:33:57.428Z,60.58
2023-05-01T09:36:00.200Z,60.57
2023-05-01T09:38:02.989Z,60.60
2023-05-01T09:40:08.391Z,60.54
2023-05-01T09:42:11.457Z,60.34
2023-05-01T09:44:20.303Z,60.59
2023-05-01T09:46:24.597Z,60.55
2023-05-01T09:48:27.600Z,60.76
2023-05-01T09:50:33.221Z,60.74
2023-05-01T09:52:36.406Z,60.78
2023-05-01T09:54:40.260Z,60.87
2023-05-01T09:56:48.595Z,60.88
2023-05-01T09:58:52.480Z,60.66
2023-05-01T10:00:55.542Z,60.83
2023-05-01T10:02:58.671Z,60.76
2023-05-01T10:05:01.676Z,60.88
2023-05-01T10:07:15.761Z,60.79
2023-05-01T10:09:28.577Z,60.84
2023-05-01T10:11:31.753Z,60.83
2023-05-01T10:13:34.633Z,60.73
2023-05-01T10:15:38.662Z,60.69
2023-05-01T10:17:43.202Z,60.81
2023-05-01T10:19:46.022Z,60.69
2023-05-01T10:21:48.854Z,60.76
2023-05-01T10:23:53.596Z,60.74
2023-05-01T10:25:58.587Z,60.72
2023-05-01T10:28:04.789Z,60.61
2023-05-01T10:30:11.026Z,60.58
2023-05-01T10:32:14.429Z,60.58
2023-05-01T10:34:19.312Z,60.63
2023-05-01T10:36:26.324Z,60.63
2023-05-01T10:38:34.982Z,60.56
2023-05-01T10:40:50.904Z,60.65
2023-05-01T10:43:16.905Z,60.38
2023-05-01T10:45:30.229Z,60.30
2023-05-01T10:47:47.969Z,60.25
2023-05-01T10:50:08.063Z,60.39
2023-05-01T10:52:11.223Z,60.25
2023-05-01T10:54:25.529Z,60.15
2023-05-01T10:56:44.102Z,60.34
2023-05-01T10:58:58.685Z,60.25
2023-05-01T11:01:29.926Z,60.20
2023-05-01T11:03:36.675Z,60.14
2023-05-01T11:06:08.330Z,60.23
2023-05-01T11:08:33.244Z,60.07
2023-05-01T11:10:36.109Z,60.19
2023-05-01T11:12:54.018Z,60.14
2023-05-01T11:15:08.355Z,60.09
2023-05-01T11:17:11.428Z,60.02
2023-05-01T11:19:50.783Z,60.03
2023-05-01T11:21:54.328Z,59.87
2023-05-01T11:23:57.311Z,59.72
2023-05-01T11:26:08.131Z,59.73
2023-05-01T11:28:12.915Z,59.75
2023-05-01T11:30:16.000Z,59.57
2023-05-01T11:32:27.125Z,59.60
2023-05-01T11:34:37.789Z,59.48
2023-05-01T11:36:50.876Z,59.36
2023-05-01T11:38:56.689Z,59.24
2023-05-01T11:41:02.009Z,59.24
2023-05-01T11:43:05.995Z,59.11
2023-05-01T11:45:11.955Z,58.96
2023-05-01T11:47:14.936Z,58.84
2023-05-01T11:49:28.010Z,58.72
2023-05-01T11:51:31.941Z,58.91
2023-05-01T11:53:34.944Z,58.70
2023-05-01T11:55:38.497Z,58.45
2023-05-01T11:57:49.742Z,58.57
2023-05-01T11:59:52.736Z,58.39
2023-05-01T12:01:58.288Z,58.26
2023-05-01T12:04:04.361Z,58.49
2023-05-01T12:06:07.440Z,58.32
2023-05-01T12:08:12.363Z,58.19
2023-05-01T12:10:15.853Z,58.02
2023-05-01T12:12:19.307Z,57.70
2023-05-01T12:14:24.263Z,57.69
2023-05-01T12:16:28.297Z,57.81
2023-05-01T12:18:32.570Z,57.59
2023-05-01T12:20:39.314Z,57.49
2023-05-01T12:22:51.730Z,57.24
2023-05-01T12:24:54.745Z,57.24
2023-05-01T12:27:03.272Z,57.33
2023-05-01T12:29:09.335Z,57.38
2023-05-01T12:31:13.371Z,57.28
2023-05-01T12:33:17.390Z,57.08
2023-05-01T12:35:22.036Z,56.98
2023-05-01T12:37:33.736Z,57.13
2023-05-01T12:39:42.236Z,56.61
2023-05-01T12:41:47.497Z,56.83
2023-05-01T12:43:50.614Z,56.66
2023-05-01T12:45:54.718Z,56.55
2023-05-01T12:47:57.887Z,56.51
2023-05-01T12:50:05.142Z,56.28
2023-05-01T12:52:09.880Z,56.15
2023-05-01T12:54:18.982Z,55.85
2023-05-01T12:56:24.613Z,56.18
2023-05-01T12:58:37.161Z,55.82
2023-05-01T13:00:49.835Z,55.88
2023-05-01T13:02:53.028Z,55.91
2023-05-01T13:05:06.989Z,55.69
2023-05-01T13:07:15.807Z,55.58
2023-05-01T13:09:19.328Z,55.53
2023-05-01T13:11:22.460Z,55.33
2023-05-01T13:13:31.736Z,55.27
2023-05-01T13:15:34.759Z,55.27
2023-05-01T13:17:38.565Z,55.24
2023-05-01T13:19:42.045Z,55.11
2023-05-01T13:21:48.850Z,54.84
2023-05-01T13:23:57.628Z,54.63
2023-05-01T13:26:01.076Z,54.70
2023-05-01T13:28:04.083Z,54.52
2023-05-01T13:30:08.338Z,54.67
2023-05-01T13:32:12.607Z,54.43
2023-05-01T13:34:21.906Z,54.48
2023-05-01T13:36:27.135Z,54.26
2023-05-01T13:38:30.430Z,54.28
2023-05-01T13:40:35.455Z,54.15
2023-05-01T13:42:42.266Z,54.03
2023-05-01T13:44:47.980Z,53.88
2023-05-01T13:46:51.222Z,53.99
2023-05-01T13:48:55.078Z,54.12
2023-05-01T13:50:57.997Z,53.96
2023-05-01T13:53:01.272Z,54.05
2023-05-01T13:55:08.556Z,54.23
2023-05-01T13:57:13.469Z,54.12
2023-05-01T13:59:17.369Z,54.41
2023-05-01T14:01:22.554Z,54.58
2023-05-01T14:03:26.196Z,54.31
2023-05-01T14:05:29.474Z,54.46
2023-05-01T14:07:32.473Z,54.56
2023-05-01T14:09:37.018Z,54.56
2023-05-01T14:11:45.464Z,54.87
2023-05-01T14:13:51.882Z,54.78
2023-05-01T14:15:54.750Z,54.93
2023-05-01T14:17:58.826Z,54.82
2023-05-01T14:20:02.269Z,54.83
2023-05-01T14:22:08.781Z,55.06
2023-05-01T14:24:12.359Z,54.85
2023-05-01T14:26:18.996Z,54.93
2023-05-01T14:28:22.785Z,54.79
2023-05-01T14:30:33.358Z,54.79
2023-05-01T14:32:41.894Z,55.09
2023-05-01T14:34:45.392Z,54.90
2023-05-01T14:36:48.456Z,54.86
2023-05-01T14:38:51.978Z,54.82
2023-05-01T14:40:54.977Z,54.74
2023-05-01T14:42:59.168Z,54.87
2023-05-01T14:45:02.480Z,54.68
2023-05-01T14:47:09.806Z,54.75
2023-05-01T14:49:17.713Z,54.73
2023-05-01T14:51:21.043Z,54.63
2023-05-01T14:53:24.368Z,54.71
2023-05-01T14:55:29.382Z,54.58
2023-05-01T14:57:32.319Z,54.67
2023-05-01T14:59:35.257Z,54.74
2023-05-01T15:01:41.927Z,54.49
2023-05-01T15:03:46.846Z,54.74
2023-05-01T15:05:50.050Z,54.77
2023-05-01T15:07:53.497Z,54.71
2023-05-01T15:09:56.767Z,54.48
2023-05-01T15:11:59.677Z,54.54
2023-05-01T15:14:04.407Z,54.59
2023-05-01T15:16:08.336Z,54.54
2023-05-01T15:18:12.213Z,54.60
2023-05-01T15:20:16.810Z,54.53
2023-05-01T15:22:19.677Z,54.62
2023-05-01T15:24:25.422Z,54.43
2023-05-01T15:26:28.276Z,54.38
2023-05-01T15:28:32.151Z,54.43
2023-05-01T15:30:35.322Z,54.39
2023-05-01T15:32:38.697Z,54.39
2023-05-01T15:34:43.082Z,54.36
2023-05-01T15:36:47.767Z,54.35
2023-05-01T15:38:51.198Z,54.48
2023-05-01T15:40:53.998Z,54.45
2023-05-01T15:42:57.674Z,54.06
2023-05-01T15:45:02.350Z,54.22
2023-05-01T15:47:05.200Z,54.48
2023-05-01T15:49:09.525Z,54.44
2023-05-01T15:51:12.836Z,54.11
2023-05-01T15:53:17.478Z,54.30
2023-05-01T15:55:21.797Z,54.18
2023-05-01T15:57:24.896Z,54.27
2023-05-01T15:59:32.188Z,54.18
2023-05-01T16:01:36.557Z,54.17
2023-05-01T16:03:45.399Z,54.06
2023-05-01T16:05:48.437Z,54.13
2023-05-01T16:07:56.050Z,54.11
2023-05-01T16:10:01.074Z,54.00
2023-05-01T16:12:04.483Z,54.07
2023-05-01T16:14:09.306Z,54.06
2023-05-01T16:16:14.484Z,54.07
2023-05-01T16:18:21.087Z,54.12
2023-05-01T16:20:24.701Z,53.89
2023-05-01T16:22:27.999Z,54.08
2023-05-01T16:24:33.097Z,53.89
2023-05-01T16:26:37.373Z,53.83
2023-05-01T16:28:40.994Z,53.81
2023-05-01T16:30:44.063Z,53.85
2023-05-01T16:32:46.982Z,53.92
2023-05-01T16:34:49.952Z,54.00
2023-05-01T16:36:53.012Z,53.72
2023-05-01T16:38:56.061Z,53.81
2023-05-01T16:40:59.277Z,53.79
2023-05-01T16:43:04.495Z,53.61
2023-05-01T16:45:08.895Z,53.71
2023-05-01T16:47:13.187Z,53.75
2023-05-01T16:49:17.262Z,53.83
2023-05-01T16:51:20.445Z,53.53
2023-05-01T16:53:23.465Z,53.67
2023-05-01T16:55:27.207Z,53.34
2023-05-01T16:57:30.053Z,53.48
2023-05-01T16:59:34.728Z,53.40
2023-05-01T17:01:37.713Z,53.72
2023-05-01T17:03:40.570Z,53.49
2023-05-01T17:05:43.504Z,53.28
2023-05-01T17:07:46.530Z,53.26
2023-05-01T17:09:49.325Z,53.27
2023-05-01T17:11:52.420Z,53.10
2023-05-01T17:13:55.386Z,53.12
2023-05-01T17:16:00.540Z,53.00
2023-05-01T17:18:03.355Z,52.78
2023-05-01T17:20:07.268Z,52.95
2023-05-01T17:22:10.175Z,52.81
2023-05-01T17:24:14.056Z,52.77
2023-05-01T17:26:17.299Z,52.75
2023-05-01T17:28:20.208Z,52.39
2023-05-01T17:30:22.958Z,52.67
2023-05-01T17:32:36.323Z,52.32
2023-05-01T17:34:40.135Z,52.29
2023-05-01T17:36:43.608Z,52.59
2023-05-01T17:38:46.406Z,52.37
2023-05-01T17:40:49.278Z,52.41
2023-05-01T17:42:52.068Z,52.38
2023-05-01T17:44:55.094Z,52.36
2023-05-01T17:46:58.045Z,52.29
2023-05-01T17:49:02.426Z,52.18
2023-05-01T17:51:05.234Z,52.11
2023-05-01T17:53:09.602Z,51.96
2023-05-01T17:55:14.860Z,52.00
2023-05-01T17:57:19.256Z,51.96
2023-05-01T17:59:22.027Z,52.05
2023-05-01T18:01:24.846Z,51.94
2023-05-01T18:03:28.005Z,51.97
2023-05-01T18:05:32.284Z,51.92
2023-05-01T18:07:35.396Z,51.89
2023-05-01T18:09:38.100Z,52.04
2023-05-01T18:11:41.066Z,52.00
2023-05-01T18:13:47.214Z,51.98
2023-05-01T18:15:51.894Z,51.92
2023-05-01T18:17:55.200Z,52.07
2023-05-01T18:19:58.855Z,52.00
2023-05-01T18:22:04.112Z,51.90
2023-05-01T18:24:07.150Z,51.89
2023-05-01T18:26:10.173Z,52.00
2023-05-01T18:28:13.161Z,51.94
2023-05-01T18:30:16.837Z,51.93
2023-05-01T18:32:19.869Z,52.17
2023-05-01T18:34:22.952Z,52.03
2023-05-01T18:36:27.424Z,51.86
2023-05-01T18:38:31.741Z,52.00
2023-05-01T18:40:34.618Z,51.90
2023-05-01T18:42:37.398Z,51.99
2023-05-01T18:44:40.152Z,52.15
2023-05-01T18:46:43.169Z,52.08
2023-05-01T18:48:46.192Z,52.04
2023-05-01T18:50:57.510Z,52.12
2023-05-01T18:53:10.360Z,51.97
2023-05-01T18:55:14.452Z,52.12
2023-05-01T18:57:17.417Z,52.11
2023-05-01T18:59:21.644Z,52.24
2023-05-01T19:01:25.496Z,52.24
2023-05-01T19:03:28.398Z,52.26
2023-05-01T19:05:31.691Z,52.24
2023-05-01T19:07:34.580Z,52.33
2023-05-01T19:09:37.490Z,52.50
2023-05-01T19:11:41.806Z,52.35
2023-05-01T19:13:44.748Z,52.74
2023-05-01T19:15:47.875Z,52.53
2023-05-01T19:17:51.161Z,52.60
2023-05-01T19:19:54.010Z,52.54
2023-05-01T19:21:56.892Z,52.67
2023-05-01T19:23:59.705Z,52.62
2023-05-01T19:26:02.642Z,52.77
2023-05-01T19:28:07.434Z,52.77
2023-05-01T19:30:10.806Z,52.70
2023-05-01T19:32:13.806Z,52.58
2023-05-01T19:34:16.792Z,52.48
2023-05-01T19:36:19.585Z,52.55
2023-05-01T19:38:22.524Z,52.53
2023-05-01T19:40:26.681Z,52.37
2023-05-01T19:42:29.835Z,52.18
2023-05-01T19:44:34.103Z,52.12
2023-05-01T19:46:37.016Z,52.02
2023-05-01T19:48:39.865Z,52.23
2023-05-01T19:50:50.012Z,52.11
2023-05-01T19:52:53.704Z,52.15
2023-05-01T19:54:56.749Z,52.39
2023-05-01T19:56:59.752Z,52.01
2023-05-01T19:59:02.795Z,52.01
2023-05-01T20:01:10.136Z,51.92
2023-05-01T20:03:13.602Z,52.02
2023-05-01T20:05:16.680Z,52.07
2023-05-01T20:07:19.703Z,52.04
2023-05-01T20:09:22.430Z,52.04
2023-05-01T20:11:25.309Z,52.04
2023-05-01T20:13:28.183Z,51.71
2023-05-01T20:15:31.208Z,51.89
2023-05-01T20:17:35.500Z,52.04
2023-05-01T20:19:39.847Z,51.97
2023-05-01T20:21:42.783Z,51.79
2023-05-01T20:23:46.316Z,51.69
2023-05-01T20:25:51.567Z,51.80
2023-05-01T20:27:54.511Z,51.82
2023-05-01T20:29:57.809Z,51.91
2023-05-01T20:32:01.334Z,52.14
2023-05-01T20:34:05.696Z,52.19
2023-05-01T20:36:08.822Z,52.11
2023-05-01T20:38:11.564Z,52.38
2023-05-01T20:40:16.332Z,52.62
2023-05-01T20:42:19.164Z,52.64
2023-05-01T20:44:21.936Z,52.62
2023-05-01T20:46:24.939Z,52.73
2023-05-01T20:48:27.974Z,52.70
2023-05-01T20:50:32.095Z,52.76
2023-05-01T20:52:35.305Z,52.61
2023-05-01T20:54:38.225Z,52.82
2023-05-01T20:56:40.967Z,52.73
2023-05-01T20:58:44.132Z,52.78
2023-05-01T21:00:46.862Z,52.96
2023-05-01T21:02:51.774Z,52.88
2023-05-01T21:04:55.708Z,52.91
2023-05-01T21:06:59.787Z,53.02
2023-05-01T21:09:03.438Z,52.86
2023-05-01T21:11:06.711Z,52.98
2023-05-01T21:13:09.742Z,53.13
2023-05-01T21:15:12.680Z,53.11
2023-05-01T21:17:16.708Z,53.12
2023-05-01T21:19:19.693Z,53.17
2023-05-01T21:21:22.889Z,53.21
2023-05-01T21:23:28.079Z,53.19
2023-05-01T21:25:31.923Z,53.05
2023-05-01T21:27:34.938Z,53.22
2023-05-01T21:29:38.880Z,53.16
2023-05-01T21:31:41.652Z,53.29
2023-05-01T21:33:46.566Z,53.21
2023-05-01T21:35:49.695Z,53.24
2023-05-01T21:37:52.509Z,53.25
2023-05-01T21:40:00.014Z,53.18
2023-05-01T21:42:04.766Z,53.37
2023-05-01T21:44:09.153Z,53.29
2023-05-01T21:46:16.640Z,53.33
2023-05-01T21:48:20.616Z,53.60
2023-05-01T21:50:23.457Z,53.46
2023-05-01T21:52:26.366Z,53.36
2023-05-01T21:54:32.673Z,53.38
2023-05-01T21:56:36.807Z,53.36
2023-05-01T21:58:40.176Z,53.43
